createdAt,value
2023-02-02T00:02:43.384Z,101179.22
2023-02-02T00:05:53.271Z,101193.25
2023-02-02T00:08:57.618Z,101182.75
2023-02-02T00:12:00.430Z,101188.00
2023-02-02T00:15:01.840Z,101181.88
2023-02-02T00:18:03.496Z,101177.50
2023-02-02T00:21:05.045Z,101183.59
2023-02-02T00:24:20.612Z,101182.75
2023-02-02T00:27:21.990Z,101182.72
2023-02-02T00:30:23.623Z,101195.03
2023-02-02T00:33:25.008Z,101195.00
2023-02-02T00:36:26.412Z,101184.50
2023-02-02T00:39:27.989Z,101188.94
2023-02-02T00:42:29.457Z,101167.09
2023-02-02T00:45:31.171Z,101175.88
2023-02-02T00:48:32.573Z,101163.69
2023-02-02T00:51:34.429Z,101175.94
2023-02-02T00:54:35.875Z,101175.97
2023-02-02T00:57:37.452Z,101180.31
2023-02-02T01:00:38.907Z,101179.44
2023-02-02T01:03:40.331Z,101171.53
2023-02-02T01:06:42.171Z,101180.31
2023-02-02T01:09:43.692Z,101178.56
2023-02-02T01:12:46.157Z,101182.03
2023-02-02T01:15:47.529Z,101181.13
2023-02-02T01:18:50.277Z,101191.66
2023-02-02T01:21:51.708Z,101182.88
2023-02-02T01:24:55.015Z,101188.09
2023-02-02T01:27:57.268Z,101187.22
2023-02-02T01:30:59.616Z,101185.41
2023-02-02T01:34:01.024Z,101191.56
2023-02-02T01:37:04.923Z,101183.72
2023-02-02T01:40:07.294Z,101174.03
2023-02-02T01:43:28.676Z,101177.56
2023-02-02T01:46:35.119Z,101184.50
2023-02-02T01:49:38.434Z,101176.72
2023-02-02T01:52:41.800Z,101182.88
2023-02-02T01:55:44.383Z,101182.84
2023-02-02T01:58:46.395Z,101181.13
2023-02-02T02:01:49.051Z,101179.38
2023-02-02T02:04:51.613Z,101179.44
2023-02-02T02:08:01.800Z,101184.63
2023-02-02T02:11:03.283Z,101176.72
2023-02-02T02:14:27.585Z,101184.63
2023-02-02T02:17:38.563Z,101186.38
2023-02-02T02:21:27.675Z,101184.59
2023-02-02T02:25:23.090Z,101183.72
2023-02-02T02:28:51.515Z,101186.34
2023-02-02T02:32:23.567Z,101190.69
2023-02-02T02:35:33.220Z,101194.19
2023-02-02T02:38:47.380Z,101179.34
2023-02-02T02:41:53.939Z,101193.31
2023-02-02T02:44:57.156Z,101182.81
2023-02-02T02:47:58.909Z,101183.66
2023-02-02T02:51:08.756Z,101186.34
2023-02-02T02:54:32.260Z,101184.59
2023-02-02T02:57:44.670Z,101182.84
2023-02-02T03:01:02.490Z,101184.59
2023-02-02T03:04:43.226Z,101190.66
2023-02-02T03:07:53.844Z,101185.41
2023-02-02T03:10:57.874Z,101189.78
2023-02-02T03:14:01.175Z,101187.16
2023-02-02T03:17:03.036Z,101191.53
2023-02-02T03:20:04.718Z,101188.91
2023-02-02T03:23:06.104Z,101195.91
2023-02-02T03:26:07.605Z,101195.03
2023-02-02T03:29:09.003Z,101198.53
2023-02-02T03:32:10.413Z,101195.03
2023-02-02T03:35:11.879Z,101197.63
2023-02-02T03:38:13.271Z,101198.50
2023-02-02T03:41:15.179Z,101192.38
2023-02-02T03:44:16.593Z,101193.28
2023-02-02T03:47:18.052Z,101195.84
2023-02-02T03:50:19.421Z,101194.13
2023-02-02T03:53:21.710Z,101194.16
2023-02-02T03:56:23.114Z,101198.53
2023-02-02T03:59:24.531Z,101196.81
2023-02-02T04:02:25.940Z,101193.31
2023-02-02T04:05:27.837Z,101197.66
2023-02-02T04:08:29.400Z,101199.41
2023-02-02T04:11:30.929Z,101205.47
2023-02-02T04:14:32.330Z,101202.91
2023-02-02T04:17:35.218Z,101214.25
2023-02-02T04:20:36.604Z,101222.13
2023-02-02T04:23:38.055Z,101228.22
2023-02-02T04:26:39.686Z,101223.00
2023-02-02T04:29:41.113Z,101222.94
2023-02-02T04:32:42.505Z,101229.03
2023-02-02T04:35:44.000Z,101222.06
2023-02-02T04:38:52.142Z,101226.47
2023-02-02T04:41:53.531Z,101223.84
2023-02-02T04:44:54.908Z,101231.66
2023-02-02T04:47:56.289Z,101234.25
2023-02-02T04:51:10.104Z,101226.47
2023-02-02T04:54:11.552Z,101229.03
2023-02-02T04:57:13.118Z,101250.03
2023-02-02T05:00:14.896Z,101246.50
2023-02-02T05:03:16.393Z,101246.53
2023-02-02T05:06:19.407Z,101249.16
2023-02-02T05:09:20.911Z,101249.16
2023-02-02T05:12:22.277Z,101253.53
2023-02-02T05:15:24.081Z,101243.06
2023-02-02T05:18:25.815Z,101238.66
2023-02-02T05:21:27.712Z,101250.94
2023-02-02T05:24:29.125Z,101256.97
2023-02-02T05:27:30.509Z,101263.16
2023-02-02T05:30:33.565Z,101271.91
2023-02-02T05:33:35.295Z,101259.66
2023-02-02T05:36:36.746Z,101260.56
2023-02-02T05:39:38.222Z,101266.66
2023-02-02T05:42:39.604Z,101260.56
2023-02-02T05:45:41.841Z,101261.47
2023-02-02T05:48:43.299Z,101269.34
2023-02-02T05:51:47.778Z,101271.09
2023-02-02T05:54:49.263Z,101278.97
2023-02-02T05:57:50.695Z,101285.13
2023-02-02T06:00:52.572Z,101285.13
2023-02-02T06:03:55.031Z,101279.81
2023-02-02T06:06:56.536Z,101286.81
2023-02-02T06:09:58.230Z,101277.19
2023-02-02T06:12:59.620Z,101277.19
2023-02-02T06:16:01.086Z,101289.41
2023-02-02T06:19:02.726Z,101272.84
2023-02-02T06:22:04.153Z,101280.66
2023-02-02T06:25:07.799Z,101278.97
2023-02-02T06:28:09.401Z,101275.38
2023-02-02T06:31:11.787Z,101277.13
2023-02-02T06:34:16.063Z,101283.28
2023-02-02T06:37:17.446Z,101279.84
2023-02-02T06:40:18.874Z,101294.66
2023-02-02T06:43:20.386Z,101285.88
2023-02-02T06:46:21.924Z,101280.66
2023-02-02T06:49:23.327Z,101289.38
2023-02-02T06:52:24.710Z,101286.75
2023-02-02T06:55:26.490Z,101287.63
2023-02-02T06:58:29.989Z,101298.97
2023-02-02T07:01:31.671Z,101303.38
2023-02-02T07:04:33.079Z,101298.13
2023-02-02T07:07:35.327Z,101300.78
2023-02-02T07:11:12.636Z,101301.63
2023-02-02T07:13:59.870Z,101301.63
2023-02-02T07:17:01.396Z,101306.81
2023-02-02T07:20:02.989Z,101306.78
2023-02-02T07:23:04.688Z,101315.56
2023-02-02T07:26:10.590Z,101314.69
2023-02-02T07:29:16.391Z,101310.34
2023-02-02T07:32:17.847Z,101308.59
2023-02-02T07:35:19.232Z,101322.59
2023-02-02T07:38:20.821Z,101325.19
2023-02-02T07:41:22.911Z,101325.13
2023-02-02T07:44:24.299Z,101340.03
2023-02-02T07:47:26.122Z,101345.25
2023-02-02T07:50:29.376Z,101345.25
2023-02-02T07:53:31.494Z,101359.16
2023-02-02T07:56:33.072Z,101350.44
2023-02-02T07:59:34.530Z,101348.66
2023-02-02T08:02:35.945Z,101356.47
2023-02-02T08:05:37.458Z,101356.56
2023-02-02T08:08:38.837Z,101366.19
2023-02-02T08:11:40.303Z,101356.53
2023-02-02T08:14:42.328Z,101353.03
2023-02-02T08:17:49.759Z,101353.94
2023-02-02T08:20:52.582Z,101363.53
2023-02-02T08:23:54.176Z,101355.66
2023-02-02T08:26:55.603Z,101371.41
2023-02-02T08:29:57.049Z,101371.44
2023-02-02T08:32:58.446Z,101379.28
2023-02-02T08:36:00.089Z,101377.50
2023-02-02T08:39:04.265Z,101372.28
2023-02-02T08:42:05.676Z,101363.41
2023-02-02T08:46:02.362Z,101361.63
2023-02-02T08:48:29.229Z,101371.25
2023-02-02T08:51:30.809Z,101372.91
2023-02-02T08:54:32.199Z,101366.75
2023-02-02T08:57:34.419Z,101366.69
2023-02-02T09:00:35.881Z,101379.78
2023-02-02T09:03:40.058Z,101382.41
2023-02-02T09:06:42.156Z,101369.22
2023-02-02T09:09:43.569Z,101371.03
2023-02-02T09:12:44.979Z,101378.88
2023-02-02T09:15:46.342Z,101387.59
2023-02-02T09:18:47.784Z,101398.06
2023-02-02T09:21:50.421Z,101390.16
2023-02-02T09:24:51.824Z,101399.78
2023-02-02T09:27:53.209Z,101408.56
2023-02-02T09:30:54.585Z,101390.22
2023-02-02T09:33:59.974Z,101390.19
2023-02-02T09:37:01.403Z,101397.19
2023-02-02T09:40:03.050Z,101382.31
2023-02-02T09:43:34.702Z,101396.31
2023-02-02T09:46:57.623Z,101387.59
2023-02-02T09:50:05.970Z,101392.81
2023-02-02T09:53:20.859Z,101384.94
2023-02-02T09:56:54.673Z,101389.31
2023-02-02T09:59:56.439Z,101384.88
2023-02-02T10:03:20.879Z,101397.97
2023-02-02T10:06:38.506Z,101391.78
2023-02-02T10:09:59.473Z,101398.72
2023-02-02T10:13:15.986Z,101401.34
2023-02-02T10:16:19.447Z,101409.19
2023-02-02T10:19:25.266Z,101407.38
2023-02-02T10:22:29.550Z,101402.88
2023-02-02T10:25:33.540Z,101414.16
2023-02-02T10:28:48.298Z,101415.88
2023-02-02T10:32:23.077Z,101425.50
2023-02-02T10:35:39.202Z,101417.69
2023-02-02T10:38:58.367Z,101430.00
2023-02-02T10:42:13.969Z,101430.09
2023-02-02T10:45:19.024Z,101424.78
2023-02-02T10:48:28.983Z,101434.47
2023-02-02T10:51:30.452Z,101423.97
2023-02-02T10:54:57.801Z,101428.34
2023-02-02T10:58:24.656Z,101438.09
2023-02-02T11:01:26.219Z,101429.38
2023-02-02T11:04:47.791Z,101437.22
2023-02-02T11:07:49.913Z,101438.09
2023-02-02T11:10:54.728Z,101429.22
2023-02-02T11:14:03.250Z,101434.53
2023-02-02T11:17:06.389Z,101443.25
2023-02-02T11:20:32.306Z,101439.75
2023-02-02T11:23:33.729Z,101438.00
2023-02-02T11:26:56.938Z,101440.63
2023-02-02T11:30:00.933Z,101436.25
2023-02-02T11:33:33.392Z,101439.69
2023-02-02T11:36:34.806Z,101435.31
2023-02-02T11:39:36.200Z,101444.13
2023-02-02T11:42:37.619Z,101445.88
2023-02-02T11:45:42.685Z,101430.03
2023-02-02T11:48:59.142Z,101429.19
2023-02-02T11:52:07.107Z,101431.84
2023-02-02T11:55:18.683Z,101431.78
2023-02-02T11:58:24.919Z,101430.84
2023-02-02T12:01:39.390Z,101426.53
2023-02-02T12:04:40.888Z,101415.97
2023-02-02T12:07:44.381Z,101423.78
2023-02-02T12:10:55.621Z,101429.97
2023-02-02T12:14:05.296Z,101427.22
2023-02-02T12:17:38.825Z,101428.91
2023-02-02T12:20:57.387Z,101416.72
2023-02-02T12:24:26.956Z,101413.16
2023-02-02T12:28:13.393Z,101413.09
2023-02-02T12:31:33.639Z,101401.75
2023-02-02T12:34:50.251Z,101394.63
2023-02-02T12:38:13.717Z,101395.56
2023-02-02T12:41:38.046Z,101391.16
2023-02-02T12:44:51.162Z,101385.03
2023-02-02T12:48:30.828Z,101381.53
2023-02-02T12:51:44.635Z,101378.69
2023-02-02T12:55:19.839Z,101389.25
2023-02-02T12:58:32.782Z,101377.84
2023-02-02T13:02:20.903Z,101375.16
2023-02-02T13:05:31.450Z,101368.06
2023-02-02T13:08:51.861Z,101366.09
2023-02-02T13:12:01.919Z,101378.38
2023-02-02T13:15:07.879Z,101386.09
2023-02-02T13:18:19.638Z,101392.91
2023-02-02T13:21:23.612Z,101396.41
2023-02-02T13:24:31.062Z,101391.34
2023-02-02T13:27:32.995Z,101391.28
2023-02-02T13:30:38.277Z,101393.03
2023-02-02T13:33:43.581Z,101392.16
2023-02-02T13:36:53.398Z,101396.47
2023-02-02T13:40:03.135Z,101407.06
2023-02-02T13:43:24.333Z,101407.16
2023-02-02T13:46:34.151Z,101402.69
2023-02-02T13:49:43.309Z,101408.78
2023-02-02T13:52:59.903Z,101407.94
2023-02-02T13:56:23.897Z,101413.31
2023-02-02T13:59:52.416Z,101417.63
2023-02-02T14:02:57.187Z,101420.34
2023-02-02T14:06:23.191Z,101428.25
2023-02-02T14:09:30.535Z,101425.50
2023-02-02T14:12:35.180Z,101422.94
2023-02-02T14:15:43.236Z,101439.72
2023-02-02T14:18:59.600Z,101439.69
2023-02-02T14:22:02.724Z,101444.19
2023-02-02T14:25:29.965Z,101443.38
2023-02-02T14:28:44.767Z,101442.56
2023-02-02T14:31:53.973Z,101453.97
2023-02-02T14:34:56.923Z,101448.78
2023-02-02T14:38:05.840Z,101462.94
2023-02-02T14:41:42.984Z,101475.19
2023-02-02T14:45:25.215Z,101476.91
2023-02-02T14:48:26.861Z,101483.97
2023-02-02T14:51:31.589Z,101484.03
2023-02-02T14:54:37.592Z,101481.34
2023-02-02T14:57:38.996Z,101479.66
2023-02-02T15:00:40.450Z,101492.94
2023-02-02T15:04:14.091Z,101494.63
2023-02-02T15:07:24.693Z,101504.22
2023-02-02T15:10:57.966Z,101513.09
2023-02-02T15:14:07.188Z,101523.59
2023-02-02T15:17:34.466Z,101521.03
2023-02-02T15:20:42.879Z,101522.81
2023-02-02T15:23:46.261Z,101528.88
2023-02-02T15:26:49.566Z,101536.78
2023-02-02T15:30:02.283Z,101549.81
2023-02-02T15:33:15.197Z,101545.50
2023-02-02T15:36:27.461Z,101541.09
2023-02-02T15:39:51.402Z,101553.31
2023-02-02T15:42:58.696Z,101561.31
2023-02-02T15:46:10.985Z,101562.03
2023-02-02T15:49:32.709Z,101556.00
2023-02-02T15:52:46.305Z,101555.13
2023-02-02T15:55:48.050Z,101562.16
2023-02-02T15:58:51.579Z,101566.59
2023-02-02T16:02:23.992Z,101564.88
2023-02-02T16:05:41.591Z,101573.69
2023-02-02T16:08:43.267Z,101583.34
2023-02-02T16:11:47.500Z,101585.91
2023-02-02T16:14:55.322Z,101587.63
2023-02-02T16:18:04.596Z,101598.16
2023-02-02T16:21:15.184Z,101601.56
2023-02-02T16:24:42.928Z,101612.13
2023-02-02T16:27:47.672Z,101623.50
2023-02-02T16:30:51.689Z,101622.63
2023-02-02T16:33:53.262Z,101627.88
2023-02-02T16:37:07.346Z,101638.41
2023-02-02T16:40:26.446Z,101642.78
2023-02-02T16:43:29.678Z,101648.03
2023-02-02T16:46:49.822Z,101657.69
2023-02-02T16:50:18.487Z,101659.44
2023-02-02T16:53:24.159Z,101666.53
2023-02-02T16:56:40.685Z,101670.94
2023-02-02T16:59:47.594Z,101673.53
2023-02-02T17:03:00.288Z,101682.28
2023-02-02T17:06:03.046Z,101676.97
2023-02-02T17:09:33.215Z,101683.16
2023-02-02T17:12:35.927Z,101687.53
2023-02-02T17:15:37.432Z,101679.69
2023-02-02T17:18:39.538Z,101699.78
2023-02-02T17:21:41.429Z,101700.75
2023-02-02T17:24:48.831Z,101712.13
2023-02-02T17:27:50.419Z,101706.00
2023-02-02T17:30:58.690Z,101710.50
2023-02-02T17:34:00.247Z,101715.75
2023-02-02T17:37:01.765Z,101709.69
2023-02-02T17:40:03.226Z,101714.06
2023-02-02T17:43:06.127Z,101717.53
2023-02-02T17:46:11.905Z,101713.19
2023-02-02T17:49:13.426Z,101720.22
2023-02-02T17:52:14.855Z,101720.19
2023-02-02T17:55:21.265Z,101728.13
2023-02-02T17:58:22.756Z,101718.47
2023-02-02T18:01:24.240Z,101723.78
2023-02-02T18:04:26.847Z,101719.44
2023-02-02T18:07:28.347Z,101724.66
2023-02-02T18:10:30.184Z,101726.47
2023-02-02T18:13:31.849Z,101733.50
2023-02-02T18:16:33.287Z,101728.25
2023-02-02T18:19:34.696Z,101722.16
2023-02-02T18:22:36.078Z,101731.78
2023-02-02T18:25:39.228Z,101721.25
2023-02-02T18:28:41.518Z,101730.88
2023-02-02T18:31:42.989Z,101728.25
2023-02-02T18:34:45.557Z,101728.28
2023-02-02T18:37:47.065Z,101733.50
2023-02-02T18:40:55.807Z,101746.69
2023-02-02T18:43:57.303Z,101748.44
2023-02-02T18:46:58.727Z,101741.41
2023-02-02T18:50:00.133Z,101740.53
2023-02-02T18:53:01.573Z,101736.16
2023-02-02T18:56:07.498Z,101735.31
2023-02-02T18:59:09.050Z,101730.03
2023-02-02T19:02:15.293Z,101728.28
2023-02-02T19:05:35.339Z,101728.28
2023-02-02T19:08:36.824Z,101722.19
2023-02-02T19:11:44.884Z,101721.28
2023-02-02T19:14:46.419Z,101721.31
2023-02-02T19:17:51.518Z,101727.44
2023-02-02T19:20:53.202Z,101730.09
2023-02-02T19:23:54.583Z,101742.34
2023-02-02T19:26:56.116Z,101737.06
2023-02-02T19:30:03.917Z,101742.31
2023-02-02T19:33:11.954Z,101753.72
2023-02-02T19:36:19.533Z,101751.97
2023-02-02T19:39:28.142Z,101761.56
2023-02-02T19:42:29.571Z,101758.06
2023-02-02T19:45:35.220Z,101764.19
2023-02-02T19:48:39.021Z,101766.84
2023-02-02T19:51:46.415Z,101772.09
2023-02-02T19:54:48.935Z,101771.22
2023-02-02T19:57:52.090Z,101765.09
2023-02-02T20:00:56.014Z,101765.97
2023-02-02T20:03:58.451Z,101770.31
2023-02-02T20:07:00.027Z,101769.47
2023-02-02T20:10:20.816Z,101769.47
2023-02-02T20:13:24.001Z,101764.22
2023-02-02T20:16:35.849Z,101765.09
2023-02-02T20:19:41.309Z,101764.22
2023-02-02T20:22:43.767Z,101761.59
2023-02-02T20:25:45.595Z,101757.22
2023-02-02T20:28:48.477Z,101757.22
2023-02-02T20:31:52.775Z,101759.84
2023-02-02T20:34:57.343Z,101761.59
2023-02-02T20:37:59.173Z,101772.97
2023-02-02T20:41:00.562Z,101768.59
2023-02-02T20:44:01.998Z,101772.97
2023-02-02T20:47:04.064Z,101773.84
2023-02-02T20:50:06.703Z,101768.59
2023-02-02T20:53:08.202Z,101769.47
2023-02-02T20:56:09.674Z,101779.09
2023-02-02T20:59:11.067Z,101783.47
2023-02-02T21:02:23.412Z,101780.84
2023-02-02T21:05:25.280Z,101780.84
2023-02-02T21:08:26.850Z,101783.47
2023-02-02T21:11:28.243Z,101780.88
2023-02-02T21:14:29.633Z,101782.63
2023-02-02T21:17:31.147Z,101782.59
2023-02-02T21:20:32.790Z,101786.97
2023-02-02T21:23:34.220Z,101786.13
2023-02-02T21:26:35.632Z,101803.63
2023-02-02T21:29:37.374Z,101794.84
2023-02-02T21:32:38.766Z,101799.25
2023-02-02T21:35:40.144Z,101801.88
2023-02-02T21:38:41.545Z,101792.22
2023-02-02T21:41:43.438Z,101798.34
2023-02-02T21:44:51.416Z,101796.59
2023-02-02T21:47:56.180Z,101796.63
2023-02-02T21:50:57.751Z,101793.97
2023-02-02T21:54:01.560Z,101779.09
2023-02-02T21:57:13.945Z,101775.63
2023-02-02T22:00:33.748Z,101786.09
2023-02-02T22:03:38.179Z,101781.75
2023-02-02T22:06:44.937Z,101772.13
2023-02-02T22:09:48.440Z,101776.47
2023-02-02T22:12:49.893Z,101779.09
2023-02-02T22:15:53.059Z,101775.63
2023-02-02T22:18:55.363Z,101781.72
2023-02-02T22:22:08.940Z,101775.59
2023-02-02T22:25:16.317Z,101775.59
2023-02-02T22:28:27.154Z,101778.22
2023-02-02T22:31:28.679Z,101775.63
2023-02-02T22:34:30.139Z,101771.25
2023-02-02T22:37:31.614Z,101766.84
2023-02-02T22:40:33.562Z,101762.47
2023-02-02T22:43:35.015Z,101758.97
2023-02-02T22:46:36.470Z,101761.59
2023-02-02T22:49:37.948Z,101762.47
2023-02-02T22:52:39.554Z,101765.09
2023-02-02T22:55:41.257Z,101771.22
2023-02-02T22:58:42.631Z,101790.47
2023-02-02T23:01:44.039Z,101787.00
2023-02-02T23:04:45.414Z,101786.13
2023-02-02T23:07:47.693Z,101792.25
2023-02-02T23:10:49.066Z,101795.75
2023-02-02T23:13:50.484Z,101789.59
2023-02-02T23:16:51.866Z,101788.75
2023-02-02T23:19:53.249Z,101804.47
2023-02-02T23:22:54.633Z,101798.34
2023-02-02T23:25:56.019Z,101822.88
2023-02-02T23:28:57.389Z,101815.84
2023-02-02T23:31:59.140Z,101820.25
2023-02-02T23:35:00.563Z,101820.25
2023-02-02T23:38:01.973Z,101822.88
2023-02-02T23:41:03.349Z,101816.75
2023-02-02T23:44:04.946Z,101810.59
2023-02-02T23:47:06.719Z,101821.97
2023-02-02T23:50:09.278Z,101820.25
2023-02-02T23:53:11.133Z,101816.75
2023-02-02T23:56:12.537Z,101825.50
2023-02-02T23:59:13.922Z,101804.50
